createdAt,value
2022-12-12T00:01:59.193Z,8.60
2022-12-12T00:04:27.391Z,7.50
2022-12-12T00:06:55.725Z,8.97
2022-12-12T00:09:23.953Z,7.00
2022-12-12T00:11:52.155Z,8.03
2022-12-12T00:14:20.723Z,7.23
2022-12-12T00:16:50.443Z,7.67
2022-12-12T00:19:18.705Z,6.67
2022-12-12T00:21:46.997Z,7.10
2022-12-12T00:24:15.108Z,7.30
2022-12-12T00:26:43.472Z,8.23
2022-12-12T00:29:12.321Z,7.23
2022-12-12T00:31:40.646Z,6.87
2022-12-12T00:34:10.311Z,6.83
2022-12-12T00:36:38.804Z,6.90
2022-12-12T00:39:07.541Z,6.27
2022-12-12T00:41:37.415Z,8.13
2022-12-12T00:44:06.169Z,6.83
2022-12-12T00:46:34.416Z,6.77
2022-12-12T00:49:02.748Z,7.60
2022-12-12T00:51:32.973Z,6.83
2022-12-12T00:54:01.665Z,6.70
2022-12-12T00:56:31.098Z,7.37
2022-12-12T00:58:59.578Z,7.43
2022-12-12T01:01:30.250Z,7.33
2022-12-12T01:03:59.005Z,7.60
2022-12-12T01:06:27.594Z,6.50
2022-12-12T01:08:57.270Z,7.57
2022-12-12T01:11:25.630Z,6.33
2022-12-12T01:13:55.441Z,6.70
2022-12-12T01:16:25.386Z,7.27
2022-12-12T01:18:53.667Z,7.17
2022-12-12T01:21:22.979Z,7.87
2022-12-12T01:23:51.538Z,6.57
2022-12-12T01:26:23.526Z,6.80
2022-12-12T01:28:52.249Z,6.90
2022-12-12T01:31:21.265Z,6.60
2022-12-12T01:33:49.876Z,5.87
2022-12-12T01:36:20.381Z,6.50
2022-12-12T01:38:50.047Z,5.67
2022-12-12T01:41:20.637Z,6.77
2022-12-12T01:43:49.222Z,6.33
2022-12-12T01:46:39.898Z,6.83
2022-12-12T01:49:19.191Z,6.37
2022-12-12T01:51:49.312Z,5.97
2022-12-12T01:54:21.392Z,6.17
2022-12-12T01:56:52.306Z,5.63
2022-12-12T01:59:23.967Z,5.50
2022-12-12T02:01:53.718Z,6.43
2022-12-12T02:04:23.348Z,5.97
2022-12-12T02:06:53.431Z,6.40
2022-12-12T02:09:22.875Z,6.10
2022-12-12T02:11:54.558Z,6.30
2022-12-12T02:14:25.735Z,6.00
2022-12-12T02:17:06.283Z,5.97
2022-12-12T02:20:10.060Z,5.87
2022-12-12T02:23:03.141Z,6.10
2022-12-12T02:25:51.161Z,6.63
2022-12-12T02:28:41.353Z,5.70
2022-12-12T02:31:23.268Z,5.47
2022-12-12T02:33:58.481Z,7.10
2022-12-12T02:36:37.806Z,6.07
2022-12-12T02:39:11.533Z,6.57
2022-12-12T02:41:44.210Z,6.43
2022-12-12T02:44:23.222Z,6.80
2022-12-12T02:47:01.983Z,5.83
2022-12-12T02:49:34.164Z,5.03
2022-12-12T02:52:03.492Z,5.30
2022-12-12T02:54:31.745Z,6.40
2022-12-12T02:57:01.712Z,6.27
2022-12-12T02:59:32.594Z,5.53
2022-12-12T03:02:28.958Z,6.37
2022-12-12T03:05:41.573Z,6.20
2022-12-12T03:08:19.401Z,5.37
2022-12-12T03:10:55.530Z,4.93
2022-12-12T03:13:32.089Z,5.93
2022-12-12T03:16:11.644Z,5.27
2022-12-12T03:18:49.736Z,5.37
2022-12-12T03:21:23.981Z,5.40
2022-12-12T03:23:58.218Z,4.87
2022-12-12T03:26:30.472Z,5.30
2022-12-12T03:29:05.818Z,5.17
2022-12-12T03:31:38.561Z,5.70
2022-12-12T03:34:13.737Z,5.17
2022-12-12T03:36:46.896Z,4.63
2022-12-12T03:39:21.837Z,5.50
2022-12-12T03:41:56.801Z,4.27
2022-12-12T03:44:35.568Z,5.00
2022-12-12T03:47:12.499Z,4.33
2022-12-12T03:49:46.725Z,5.57
2022-12-12T03:52:18.354Z,5.80
2022-12-12T03:54:52.245Z,5.07
2022-12-12T03:57:23.895Z,4.67
2022-12-12T03:59:56.014Z,6.17
2022-12-12T04:02:29.213Z,5.43
2022-12-12T04:05:05.686Z,5.17
2022-12-12T04:07:37.614Z,4.90
2022-12-12T04:10:24.242Z,4.43
2022-12-12T04:12:59.759Z,5.07
2022-12-12T04:15:47.895Z,4.87
2022-12-12T04:18:21.977Z,5.23
2022-12-12T04:21:22.181Z,4.70
2022-12-12T04:24:01.394Z,4.70
2022-12-12T04:26:41.819Z,4.77
2022-12-12T04:29:32.129Z,4.00
2022-12-12T04:32:07.121Z,4.63
2022-12-12T04:34:41.647Z,5.53
2022-12-12T04:37:15.415Z,4.20
2022-12-12T04:39:45.856Z,4.87
2022-12-12T04:42:18.629Z,4.50
2022-12-12T04:44:48.754Z,4.50
2022-12-12T04:47:18.132Z,4.87
2022-12-12T04:49:48.680Z,4.97
2022-12-12T04:52:22.285Z,5.17
2022-12-12T04:54:55.943Z,4.93
2022-12-12T04:57:30.260Z,5.43
2022-12-12T04:59:58.829Z,5.57
2022-12-12T05:02:34.025Z,6.03
2022-12-12T05:05:07.296Z,5.53
2022-12-12T05:07:40.466Z,6.20
2022-12-12T05:10:14.655Z,6.07
2022-12-12T05:12:45.881Z,5.53
2022-12-12T05:15:15.302Z,6.70
2022-12-12T05:17:45.924Z,5.70
2022-12-12T05:20:14.504Z,5.00
2022-12-12T05:22:44.212Z,7.27
2022-12-12T05:25:14.279Z,5.93
2022-12-12T05:27:42.738Z,6.17
2022-12-12T05:30:12.544Z,6.67
2022-12-12T05:32:40.909Z,7.00
2022-12-12T05:35:10.664Z,5.83
2022-12-12T05:37:39.295Z,6.23
2022-12-12T05:40:11.021Z,6.00
2022-12-12T05:42:39.488Z,5.80
2022-12-12T05:45:09.370Z,6.17
2022-12-12T05:47:37.629Z,6.33
2022-12-12T05:50:06.671Z,6.47
2022-12-12T05:52:34.947Z,5.87
2022-12-12T05:55:03.302Z,6.77
2022-12-12T05:57:35.219Z,7.70
2022-12-12T06:00:05.028Z,5.43
2022-12-12T06:02:33.335Z,7.17
2022-12-12T06:05:01.648Z,6.70
2022-12-12T06:07:29.977Z,7.13
2022-12-12T06:09:58.221Z,7.13
2022-12-12T06:12:26.397Z,6.60
2022-12-12T06:14:56.138Z,7.10
2022-12-12T06:17:28.324Z,6.00
2022-12-12T06:19:59.761Z,6.43
2022-12-12T06:22:28.093Z,6.60
2022-12-12T06:24:56.654Z,6.67
2022-12-12T06:27:24.894Z,6.33
2022-12-12T06:29:53.103Z,6.90
2022-12-12T06:32:22.926Z,6.70
2022-12-12T06:34:51.229Z,6.03
2022-12-12T06:37:19.586Z,5.93
2022-12-12T06:39:48.145Z,5.80
2022-12-12T06:42:16.676Z,5.27
2022-12-12T06:44:45.005Z,5.50
2022-12-12T06:47:13.189Z,6.07
2022-12-12T06:49:42.944Z,5.00
2022-12-12T06:52:11.252Z,5.50
2022-12-12T06:54:39.536Z,6.20
2022-12-12T06:57:07.770Z,4.57
2022-12-12T06:59:36.176Z,4.67
2022-12-12T07:02:12.198Z,5.90
2022-12-12T07:04:40.569Z,5.83
2022-12-12T07:07:10.390Z,5.77
2022-12-12T07:09:38.728Z,5.27
2022-12-12T07:12:07.166Z,4.97
2022-12-12T07:14:35.566Z,6.00
2022-12-12T07:17:04.168Z,5.63
2022-12-12T07:19:32.754Z,5.60
2022-12-12T07:22:07.542Z,5.80
2022-12-12T07:24:39.869Z,5.03
2022-12-12T07:27:09.160Z,5.63
2022-12-12T07:29:37.558Z,5.80
2022-12-12T07:32:06.526Z,5.50
2022-12-12T07:34:35.047Z,5.90
2022-12-12T07:37:03.778Z,5.20
2022-12-12T07:39:32.325Z,6.20
2022-12-12T07:42:02.293Z,5.93
2022-12-12T07:44:30.884Z,6.80
2022-12-12T07:46:59.540Z,5.93
2022-12-12T07:49:30.192Z,5.93
2022-12-12T07:51:58.778Z,6.60
2022-12-12T07:54:27.365Z,6.30
2022-12-12T07:56:55.890Z,5.90
2022-12-12T07:59:25.949Z,6.63
2022-12-12T08:01:55.074Z,5.07
2022-12-12T08:04:23.940Z,6.03
2022-12-12T08:06:58.358Z,6.40
2022-12-12T08:09:30.453Z,4.97
2022-12-12T08:11:59.148Z,5.20
2022-12-12T08:14:29.504Z,6.77
2022-12-12T08:16:58.074Z,4.97
2022-12-12T08:19:26.746Z,5.63
2022-12-12T08:21:55.089Z,5.50
2022-12-12T08:24:24.308Z,5.93
2022-12-12T08:26:53.024Z,5.53
2022-12-12T08:29:21.667Z,5.63
2022-12-12T08:31:51.673Z,5.53
2022-12-12T08:34:52.081Z,4.60
2022-12-12T08:37:47.403Z,5.77
2022-12-12T08:43:20.340Z,5.83
2022-12-12T08:45:55.163Z,5.60
2022-12-12T08:48:25.709Z,5.07
2022-12-12T08:50:54.254Z,5.57
2022-12-12T08:53:22.869Z,5.97
2022-12-12T08:55:51.546Z,6.60
2022-12-12T08:58:20.261Z,6.87
2022-12-12T09:00:50.254Z,7.17
2022-12-12T09:03:19.072Z,7.13
2022-12-12T09:05:49.075Z,7.53
2022-12-12T09:08:17.780Z,6.33
2022-12-12T09:10:50.757Z,7.93
2022-12-12T09:13:20.950Z,7.90
2022-12-12T09:15:52.421Z,7.83
2022-12-12T09:18:21.144Z,6.90
2022-12-12T09:20:51.840Z,7.67
2022-12-12T09:23:21.030Z,7.60
2022-12-12T09:25:49.615Z,7.90
2022-12-12T09:28:19.788Z,7.20
2022-12-12T09:30:48.909Z,7.43
2022-12-12T09:33:17.495Z,7.23
2022-12-12T09:35:45.889Z,7.30
2022-12-12T09:38:15.664Z,6.77
2022-12-12T09:40:50.427Z,7.57
2022-12-12T09:43:26.135Z,8.17
2022-12-12T09:45:57.928Z,7.07
2022-12-12T09:48:32.434Z,7.20
2022-12-12T09:51:00.707Z,10.40
2022-12-12T09:53:30.688Z,7.37
2022-12-12T09:56:05.430Z,7.23
2022-12-12T09:58:43.386Z,6.97
2022-12-12T10:01:22.673Z,8.90
2022-12-12T10:04:00.051Z,9.07
2022-12-12T10:06:37.893Z,7.50
2022-12-12T10:09:25.434Z,6.67
2022-12-12T10:11:55.764Z,9.80
2022-12-12T10:14:34.574Z,7.03
2022-12-12T10:17:04.932Z,7.67
2022-12-12T10:19:42.971Z,6.40
2022-12-12T10:22:24.290Z,7.20
2022-12-12T10:25:04.907Z,7.10
2022-12-12T10:27:33.483Z,6.90
2022-12-12T10:30:12.048Z,6.53
2022-12-12T10:32:50.241Z,6.73
2022-12-12T10:35:27.915Z,6.23
2022-12-12T10:38:06.283Z,6.30
2022-12-12T10:40:47.119Z,7.50
2022-12-12T10:43:22.431Z,7.20
2022-12-12T10:46:10.945Z,8.80
2022-12-12T10:48:40.542Z,7.10
2022-12-12T10:51:12.081Z,10.13
2022-12-12T10:53:42.108Z,7.37
2022-12-12T10:56:19.823Z,8.90
2022-12-12T10:58:55.656Z,8.20
2022-12-12T11:02:00.706Z,8.47
2022-12-12T11:04:17.039Z,9.20
2022-12-12T11:06:49.513Z,7.60
2022-12-12T11:09:23.626Z,7.60
2022-12-12T11:12:04.063Z,5.20
2022-12-12T11:14:35.906Z,5.57
2022-12-12T11:17:19.189Z,6.53
2022-12-12T11:19:47.971Z,5.03
2022-12-12T11:22:17.250Z,6.47
2022-12-12T11:24:49.439Z,6.10
2022-12-12T11:27:28.013Z,5.63
2022-12-12T11:29:59.349Z,6.00
2022-12-12T11:32:31.258Z,7.07
2022-12-12T11:35:03.132Z,6.23
2022-12-12T11:37:39.406Z,6.53
2022-12-12T11:40:21.180Z,6.43
2022-12-12T11:42:51.853Z,6.20
2022-12-12T11:45:24.773Z,7.00
2022-12-12T11:47:53.281Z,6.43
2022-12-12T11:50:24.664Z,6.80
2022-12-12T11:52:55.237Z,5.37
2022-12-12T11:55:35.076Z,7.93
2022-12-12T11:58:40.502Z,8.13
2022-12-12T12:01:34.321Z,6.70
2022-12-12T12:04:28.450Z,6.10
2022-12-12T12:07:34.694Z,6.90
2022-12-12T12:10:24.472Z,6.30
2022-12-12T12:13:04.058Z,8.40
2022-12-12T12:15:48.491Z,6.23
2022-12-12T12:18:34.407Z,5.43
2022-12-12T12:21:29.505Z,6.90
2022-12-12T12:27:51.156Z,6.80
2022-12-12T12:30:43.725Z,7.27
2022-12-12T12:34:06.395Z,6.93
2022-12-12T12:37:23.185Z,6.67
2022-12-12T12:44:18.494Z,7.00
2022-12-12T12:47:23.104Z,6.53
2022-12-12T12:50:22.946Z,6.73
2022-12-12T12:53:15.332Z,7.07
2022-12-12T12:56:08.306Z,6.73
2022-12-12T12:59:26.942Z,5.87
2022-12-12T13:02:33.524Z,7.03
2022-12-12T13:05:40.938Z,7.23
2022-12-12T13:08:47.910Z,7.47
2022-12-12T13:12:13.255Z,7.63
2022-12-12T13:15:43.401Z,7.40
2022-12-12T13:22:05.051Z,8.20
2022-12-12T13:25:42.682Z,7.90
2022-12-12T13:32:47.025Z,7.40
2022-12-12T13:36:06.673Z,8.10
2022-12-12T13:39:22.672Z,7.30
2022-12-12T13:42:46.289Z,7.40
2022-12-12T13:46:09.388Z,6.43
2022-12-12T13:59:57.580Z,7.67
2022-12-12T14:06:06.514Z,7.37
2022-12-12T14:09:15.366Z,7.73
2022-12-12T14:11:57.602Z,8.40
2022-12-12T14:15:13.144Z,7.93
2022-12-12T14:17:55.549Z,7.33
2022-12-12T14:20:34.662Z,8.13
2022-12-12T14:23:29.325Z,6.37
2022-12-12T14:26:02.954Z,8.97
2022-12-12T14:28:33.893Z,8.80
2022-12-12T14:31:15.473Z,9.03
2022-12-12T14:34:28.946Z,9.03
2022-12-12T14:37:17.428Z,8.43
2022-12-12T14:39:58.185Z,7.07
2022-12-12T14:43:18.937Z,9.70
2022-12-12T14:45:36.445Z,8.83
2022-12-12T14:48:35.245Z,8.03
2022-12-12T14:51:13.349Z,8.47
2022-12-12T14:53:47.984Z,8.17
2022-12-12T14:56:20.915Z,10.13
2022-12-12T14:58:58.001Z,8.60
2022-12-12T15:01:32.808Z,8.30
2022-12-12T15:04:05.132Z,9.30
2022-12-12T15:06:38.114Z,8.13
2022-12-12T15:09:24.728Z,9.13
2022-12-12T15:12:39.379Z,7.77
2022-12-12T15:15:24.221Z,9.63
2022-12-12T15:17:53.964Z,7.47
2022-12-12T15:20:25.543Z,9.90
2022-12-12T15:22:58.415Z,9.40
2022-12-12T15:25:29.151Z,9.37
2022-12-12T15:27:58.445Z,11.37
2022-12-12T15:30:34.491Z,8.87
2022-12-12T15:33:05.003Z,7.47
2022-12-12T15:35:33.679Z,7.70
2022-12-12T15:38:06.217Z,8.20
2022-12-12T15:40:35.458Z,8.00
2022-12-12T15:43:06.299Z,8.23
2022-12-12T15:45:37.108Z,8.33
2022-12-12T15:48:07.112Z,7.00
2022-12-12T15:50:53.674Z,8.63
2022-12-12T15:53:37.390Z,8.90
2022-12-12T15:56:09.111Z,7.13
2022-12-12T15:58:40.122Z,6.77
2022-12-12T16:01:21.903Z,7.37
2022-12-12T16:03:59.342Z,7.17
2022-12-12T16:06:33.218Z,6.40
2022-12-12T16:09:17.381Z,6.87
2022-12-12T16:11:47.183Z,7.13
2022-12-12T16:14:31.370Z,7.30
2022-12-12T16:17:10.394Z,6.97
2022-12-12T16:19:45.795Z,6.10
2022-12-12T16:22:28.391Z,7.20
2022-12-12T16:25:31.606Z,6.33
2022-12-12T16:28:10.248Z,6.83
2022-12-12T16:30:40.132Z,6.53
2022-12-12T16:33:13.374Z,8.30
2022-12-12T16:35:43.379Z,7.27
2022-12-12T16:38:15.609Z,7.17
2022-12-12T16:40:48.504Z,6.10
2022-12-12T16:43:20.652Z,7.13
2022-12-12T16:45:51.594Z,6.80
2022-12-12T16:48:22.877Z,6.93
2022-12-12T16:50:53.051Z,6.20
2022-12-12T16:53:21.573Z,7.13
2022-12-12T16:55:54.225Z,7.20
2022-12-12T16:58:23.131Z,6.47
2022-12-12T17:00:53.640Z,5.23
2022-12-12T17:03:25.083Z,6.43
2022-12-12T17:05:54.272Z,6.10
2022-12-12T17:08:23.511Z,5.23
2022-12-12T17:11:10.243Z,5.63
2022-12-12T17:13:43.581Z,6.23
2022-12-12T17:16:12.105Z,5.53
2022-12-12T17:18:41.050Z,6.73
2022-12-12T17:21:10.229Z,6.50
2022-12-12T17:23:38.597Z,6.20
2022-12-12T17:26:08.714Z,5.97
2022-12-12T17:28:37.293Z,5.80
2022-12-12T17:31:10.071Z,5.60
2022-12-12T17:33:49.465Z,6.63
2022-12-12T17:36:19.158Z,6.57
2022-12-12T17:38:48.966Z,5.43
2022-12-12T17:41:21.353Z,5.47
2022-12-12T17:43:55.237Z,5.10
2022-12-12T17:46:25.570Z,5.37
2022-12-12T17:48:57.671Z,5.63
2022-12-12T17:51:26.793Z,6.07
2022-12-12T17:54:02.908Z,6.07
2022-12-12T17:56:33.324Z,6.70
2022-12-12T17:59:06.034Z,5.33
2022-12-12T18:01:37.020Z,5.13
2022-12-12T18:04:06.712Z,3.90
2022-12-12T18:06:38.525Z,5.43
2022-12-12T18:09:08.018Z,6.50
2022-12-12T18:11:39.355Z,5.57
2022-12-12T18:14:15.656Z,5.17
2022-12-12T18:16:45.839Z,5.07
2022-12-12T18:19:14.416Z,6.53
2022-12-12T18:22:00.397Z,6.07
2022-12-12T18:24:30.592Z,5.27
2022-12-12T18:27:03.689Z,7.20
2022-12-12T18:29:33.503Z,5.40
2022-12-12T18:32:02.027Z,6.30
2022-12-12T18:34:30.571Z,5.87
2022-12-12T18:36:59.178Z,4.97
2022-12-12T18:39:27.994Z,5.93
2022-12-12T18:41:56.501Z,5.47
2022-12-12T18:44:27.140Z,6.43
2022-12-12T18:46:56.111Z,6.47
2022-12-12T18:49:24.446Z,4.83
2022-12-12T18:51:54.993Z,6.27
2022-12-12T18:54:23.757Z,4.33
2022-12-12T18:56:52.185Z,5.97
2022-12-12T18:59:20.735Z,6.70
2022-12-12T19:01:51.939Z,5.67
2022-12-12T19:04:23.542Z,6.43
2022-12-12T19:06:55.447Z,5.40
2022-12-12T19:09:23.946Z,6.00
2022-12-12T19:11:58.460Z,5.90
2022-12-12T19:15:15.332Z,4.53
2022-12-12T19:17:26.292Z,5.93
2022-12-12T19:19:55.597Z,6.43
2022-12-12T19:22:44.492Z,6.17
2022-12-12T19:25:13.032Z,6.23
2022-12-12T19:27:41.617Z,4.90
2022-12-12T19:30:11.993Z,4.93
2022-12-12T19:32:43.604Z,5.40
2022-12-12T19:35:12.334Z,6.17
2022-12-12T19:37:41.029Z,3.70
2022-12-12T19:40:13.881Z,5.47
2022-12-12T19:42:43.209Z,5.13
2022-12-12T19:45:12.141Z,4.40
2022-12-12T19:47:42.715Z,4.87
2022-12-12T19:50:12.414Z,4.97
2022-12-12T19:52:44.767Z,4.33
2022-12-12T19:55:13.211Z,5.20
2022-12-12T19:57:42.083Z,4.23
2022-12-12T20:00:16.458Z,4.57
2022-12-12T20:02:47.639Z,4.77
2022-12-12T20:05:18.362Z,5.03
2022-12-12T20:07:47.087Z,5.67
2022-12-12T20:10:16.278Z,4.43
2022-12-12T20:12:58.875Z,4.87
2022-12-12T20:15:53.198Z,4.47
2022-12-12T20:33:48.488Z,4.83
2022-12-12T20:40:44.214Z,4.43
2022-12-12T20:44:32.623Z,4.40
2022-12-12T20:51:54.268Z,3.57
2022-12-12T20:54:53.307Z,4.53
2022-12-12T20:58:04.730Z,4.40
2022-12-12T21:01:19.957Z,4.00
2022-12-12T21:08:04.588Z,4.87
2022-12-12T21:14:14.528Z,3.33
2022-12-12T21:17:13.590Z,4.67
2022-12-12T21:20:07.256Z,4.47
2022-12-12T21:23:41.315Z,5.13
2022-12-12T21:26:53.341Z,4.77
2022-12-12T21:29:33.740Z,4.70
2022-12-12T21:32:19.811Z,4.17
2022-12-12T21:34:51.254Z,4.10
2022-12-12T21:37:34.624Z,3.63
2022-12-12T21:40:18.001Z,5.00
2022-12-12T21:42:52.603Z,5.43
2022-12-12T21:45:27.038Z,4.50
2022-12-12T21:48:02.219Z,4.47
2022-12-12T21:50:34.412Z,4.90
2022-12-12T21:53:20.957Z,5.60
2022-12-12T21:55:53.550Z,4.57
2022-12-12T21:58:24.641Z,5.43
2022-12-12T22:00:55.325Z,4.53
2022-12-12T22:03:27.725Z,4.97
2022-12-12T22:05:58.568Z,5.33
2022-12-12T22:08:28.869Z,4.30
2022-12-12T22:11:01.841Z,4.80
2022-12-12T22:13:39.638Z,4.93
2022-12-12T22:16:16.167Z,5.70
2022-12-12T22:18:49.113Z,5.20
2022-12-12T22:21:40.082Z,5.87
2022-12-12T22:24:14.952Z,5.53
2022-12-12T22:26:59.917Z,4.87
2022-12-12T22:29:37.958Z,5.37
2022-12-12T22:32:08.083Z,4.60
2022-12-12T22:34:36.529Z,5.17
2022-12-12T22:37:07.437Z,6.10
2022-12-12T22:39:36.243Z,6.03
2022-12-12T22:46:13.665Z,5.53
2022-12-12T22:49:23.349Z,6.30
2022-12-12T22:55:49.107Z,5.87
2022-12-12T22:58:41.656Z,5.93
2022-12-12T23:08:44.087Z,4.70
2022-12-12T23:12:01.115Z,6.43
2022-12-12T23:27:52.871Z,6.23
2022-12-12T23:31:08.577Z,5.27
2022-12-12T23:34:33.691Z,5.20
2022-12-12T23:41:13.040Z,5.63
2022-12-12T23:44:35.521Z,5.67
2022-12-12T23:47:43.030Z,6.40
2022-12-12T23:54:01.214Z,5.47
2022-12-12T23:56:40.057Z,5.43
2022-12-12T23:59:51.509Z,5.47
